createdAt,value
2022-10-23T00:00:20.036Z,27.13
2022-10-23T00:02:53.013Z,20.27
2022-10-23T00:05:20.600Z,19.67
2022-10-23T00:07:55.369Z,21.20
2022-10-23T00:10:23.163Z,21.93
2022-10-23T00:12:50.912Z,21.40
2022-10-23T00:15:20.043Z,22.20
2022-10-23T00:17:47.179Z,19.73
2022-10-23T00:20:14.803Z,26.53
2022-10-23T00:22:41.987Z,21.77
2022-10-23T00:25:10.811Z,22.63
2022-10-23T00:27:37.971Z,25.97
2022-10-23T00:30:05.641Z,21.63
2022-10-23T00:34:59.932Z,23.90
2022-10-23T00:37:27.138Z,21.30
2022-10-23T00:39:54.321Z,22.23
2022-10-23T00:42:21.890Z,22.03
2022-10-23T00:44:51.757Z,22.70
2022-10-23T00:47:19.107Z,21.33
2022-10-23T00:49:46.225Z,29.30
2022-10-23T00:52:14.007Z,35.20
2022-10-23T00:54:42.770Z,23.53
2022-10-23T00:57:13.682Z,27.73
2022-10-23T00:59:41.361Z,34.03
2022-10-23T01:02:08.727Z,27.17
2022-10-23T01:04:36.198Z,28.53
2022-10-23T01:07:03.337Z,27.77
2022-10-23T01:09:38.413Z,28.70
2022-10-23T01:12:11.256Z,26.50
2022-10-23T01:14:54.774Z,28.73
2022-10-23T01:17:28.637Z,40.33
2022-10-23T01:20:07.782Z,30.27
2022-10-23T01:22:44.300Z,44.93
2022-10-23T01:25:24.467Z,33.97
2022-10-23T01:27:53.723Z,60.70
2022-10-23T01:30:20.963Z,40.77
2022-10-23T01:32:51.699Z,49.73
2022-10-23T01:35:21.840Z,52.63
2022-10-23T01:37:52.144Z,62.17
2022-10-23T01:40:29.965Z,81.13
2022-10-23T01:42:59.883Z,44.03
2022-10-23T01:45:33.221Z,51.97
2022-10-23T01:48:01.610Z,123.10
2022-10-23T01:50:29.763Z,27.40
2022-10-23T01:52:56.981Z,84.33
2022-10-23T01:55:24.642Z,32.97
2022-10-23T01:57:52.512Z,60.60
2022-10-23T02:00:20.140Z,53.30
2022-10-23T02:02:48.512Z,115.83
2022-10-23T02:05:17.915Z,72.50
2022-10-23T02:07:45.970Z,114.07
2022-10-23T02:10:13.963Z,101.87
2022-10-23T02:12:50.959Z,86.40
2022-10-23T02:15:20.856Z,37.20
2022-10-23T02:17:47.928Z,178.10
2022-10-23T02:20:24.463Z,78.73
2022-10-23T02:23:14.960Z,182.93
2022-10-23T02:25:47.300Z,56.97
2022-10-23T02:28:17.029Z,68.57
2022-10-23T02:30:45.149Z,44.47
2022-10-23T02:33:12.602Z,70.50
2022-10-23T02:35:39.732Z,32.27
2022-10-23T02:38:25.832Z,33.80
2022-10-23T02:40:53.436Z,30.67
2022-10-23T02:43:29.312Z,28.53
2022-10-23T02:45:56.375Z,31.70
2022-10-23T02:48:24.149Z,28.07
2022-10-23T02:51:07.299Z,51.80
2022-10-23T02:53:39.756Z,19.80
2022-10-23T02:56:19.109Z,37.87
2022-10-23T02:58:56.556Z,52.37
2022-10-23T03:01:29.326Z,35.97
2022-10-23T03:03:58.476Z,17.73
2022-10-23T03:06:25.581Z,24.03
2022-10-23T03:08:52.673Z,76.40
2022-10-23T03:11:19.804Z,33.13
2022-10-23T03:13:47.236Z,19.13
2022-10-23T03:16:14.325Z,30.93
2022-10-23T03:18:41.493Z,15.97
2022-10-23T03:21:08.825Z,135.13
2022-10-23T03:23:36.097Z,18.57
2022-10-23T03:26:03.197Z,40.10
2022-10-23T03:28:30.336Z,35.33
2022-10-23T03:30:57.552Z,18.13
2022-10-23T03:33:24.799Z,30.53
2022-10-23T03:35:51.885Z,15.03
2022-10-23T03:38:19.036Z,27.30
2022-10-23T03:40:46.151Z,57.90
2022-10-23T03:43:13.381Z,79.97
2022-10-23T03:45:40.487Z,145.03
2022-10-23T03:48:08.140Z,22.33
2022-10-23T03:50:35.552Z,16.67
2022-10-23T03:53:02.696Z,39.63
2022-10-23T03:55:29.938Z,10.67
2022-10-23T03:57:57.052Z,32.70
2022-10-23T04:00:24.196Z,11.23
2022-10-23T04:02:51.295Z,13.77
2022-10-23T04:05:18.565Z,14.97
2022-10-23T04:07:45.719Z,9.17
2022-10-23T04:10:12.813Z,9.53
2022-10-23T04:12:40.002Z,17.53
2022-10-23T04:15:07.353Z,20.43
2022-10-23T04:17:34.496Z,18.03
2022-10-23T04:20:01.647Z,97.97
2022-10-23T04:22:28.772Z,52.63
2022-10-23T04:24:56.027Z,108.13
2022-10-23T04:27:23.544Z,266.60
2022-10-23T04:29:53.189Z,188.33
2022-10-23T04:32:22.651Z,62.83
2022-10-23T04:34:49.865Z,17.30
2022-10-23T04:37:16.965Z,93.73
2022-10-23T04:39:44.096Z,98.07
2022-10-23T04:42:11.179Z,199.63
2022-10-23T04:44:38.269Z,99.57
2022-10-23T04:47:05.423Z,194.17
2022-10-23T04:49:32.515Z,99.57
2022-10-23T04:51:59.619Z,37.27
2022-10-23T04:54:26.762Z,49.03
2022-10-23T04:56:53.862Z,15.17
2022-10-23T04:59:20.963Z,56.57
2022-10-23T05:01:48.119Z,64.33
2022-10-23T05:04:15.264Z,54.97
2022-10-23T05:06:42.381Z,43.83
2022-10-23T05:09:09.509Z,102.20
2022-10-23T05:11:36.659Z,46.63
2022-10-23T05:14:03.763Z,230.73
2022-10-23T05:16:37.869Z,304.80
2022-10-23T05:19:05.559Z,373.73
2022-10-23T05:21:33.804Z,62.70
2022-10-23T05:24:02.223Z,83.50
2022-10-23T05:26:30.150Z,71.27
2022-10-23T05:28:57.246Z,58.17
2022-10-23T05:31:25.189Z,62.60
2022-10-23T05:33:53.343Z,48.93
2022-10-23T05:36:20.605Z,53.10
2022-10-23T05:38:47.810Z,54.70
2022-10-23T05:41:14.934Z,60.60
2022-10-23T05:43:42.124Z,47.30
2022-10-23T05:46:09.195Z,54.73
2022-10-23T05:48:36.420Z,57.37
2022-10-23T05:51:04.625Z,51.03
2022-10-23T05:53:31.757Z,53.07
2022-10-23T05:56:04.160Z,48.00
2022-10-23T05:58:31.296Z,37.37
2022-10-23T06:00:58.487Z,32.17
2022-10-23T06:03:25.661Z,34.73
2022-10-23T06:05:52.944Z,34.07
2022-10-23T06:08:20.134Z,34.07
2022-10-23T06:10:47.239Z,34.50
2022-10-23T06:13:14.335Z,33.77
2022-10-23T06:15:41.535Z,37.70
2022-10-23T06:18:08.640Z,31.77
2022-10-23T06:20:37.091Z,24.87
2022-10-23T06:23:04.752Z,30.67
2022-10-23T06:25:31.852Z,31.77
2022-10-23T06:27:58.983Z,27.43
2022-10-23T06:30:26.109Z,26.10
2022-10-23T06:32:53.328Z,30.83
2022-10-23T06:35:20.603Z,32.30
2022-10-23T06:37:47.760Z,28.60
2022-10-23T06:40:14.845Z,30.30
2022-10-23T06:42:42.214Z,34.13
2022-10-23T06:45:09.814Z,33.03
2022-10-23T06:47:36.891Z,32.03
2022-10-23T06:50:04.281Z,33.73
2022-10-23T06:52:46.483Z,24.93
2022-10-23T06:55:14.450Z,22.20
2022-10-23T06:57:41.788Z,19.93
2022-10-23T07:00:09.563Z,22.17
2022-10-23T07:02:37.410Z,22.87
2022-10-23T07:05:04.972Z,21.00
2022-10-23T07:07:33.218Z,15.83
2022-10-23T07:10:00.384Z,10.70
2022-10-23T07:12:28.935Z,11.00
2022-10-23T07:14:56.200Z,12.13
2022-10-23T07:17:23.320Z,12.23
2022-10-23T07:19:50.431Z,22.33
2022-10-23T07:22:17.544Z,20.50
2022-10-23T07:24:44.678Z,21.93
2022-10-23T07:27:11.772Z,25.47
2022-10-23T07:29:38.896Z,20.07
2022-10-23T07:32:06.147Z,21.83
2022-10-23T07:34:33.386Z,17.23
2022-10-23T07:37:00.492Z,19.47
2022-10-23T07:39:27.697Z,18.67
2022-10-23T07:41:54.802Z,18.80
2022-10-23T07:44:24.303Z,22.57
2022-10-23T07:46:54.120Z,19.40
2022-10-23T07:49:21.201Z,16.87
2022-10-23T07:51:51.267Z,19.30
2022-10-23T07:54:19.088Z,20.83
2022-10-23T07:56:46.190Z,20.00
2022-10-23T07:59:13.853Z,17.47
2022-10-23T08:01:42.716Z,18.90
2022-10-23T08:04:10.893Z,20.37
2022-10-23T08:06:38.384Z,18.63
2022-10-23T08:09:06.797Z,17.80
2022-10-23T08:11:35.817Z,16.23
2022-10-23T08:14:06.676Z,21.77
2022-10-23T08:16:34.527Z,23.30
2022-10-23T08:19:01.843Z,17.77
2022-10-23T08:21:29.178Z,14.93
2022-10-23T08:23:57.080Z,22.63
2022-10-23T08:26:24.706Z,18.57
2022-10-23T08:28:52.429Z,19.27
2022-10-23T08:31:20.648Z,14.37
2022-10-23T08:36:20.154Z,17.50
2022-10-23T08:38:47.379Z,16.77
2022-10-23T08:41:38.099Z,18.53
2022-10-23T08:44:34.611Z,17.63
2022-10-23T08:47:20.107Z,16.07
2022-10-23T08:49:49.956Z,21.77
2022-10-23T08:52:37.527Z,24.30
2022-10-23T08:55:20.529Z,18.50
2022-10-23T08:58:23.592Z,19.93
2022-10-23T09:00:51.159Z,22.93
2022-10-23T09:03:18.717Z,22.77
2022-10-23T09:06:07.565Z,23.63
2022-10-23T09:08:40.728Z,24.57
2022-10-23T09:11:21.235Z,23.30
2022-10-23T09:13:51.220Z,28.57
2022-10-23T09:16:29.627Z,18.00
2022-10-23T09:18:56.726Z,22.07
2022-10-23T09:21:30.047Z,23.33
2022-10-23T09:23:57.480Z,21.10
2022-10-23T09:26:24.776Z,17.80
2022-10-23T09:28:55.216Z,17.93
2022-10-23T09:31:22.355Z,21.17
2022-10-23T09:33:59.932Z,24.53
2022-10-23T09:36:29.352Z,24.83
2022-10-23T09:39:00.681Z,19.50
2022-10-23T09:41:31.871Z,21.73
2022-10-23T09:44:02.158Z,21.80
2022-10-23T09:46:37.724Z,30.57
2022-10-23T09:49:05.816Z,27.30
2022-10-23T09:51:33.073Z,24.77
2022-10-23T09:54:00.729Z,23.80
2022-10-23T09:56:32.683Z,29.00
2022-10-23T09:59:01.373Z,27.33
2022-10-23T10:01:32.862Z,27.73
2022-10-23T10:04:00.178Z,28.23
2022-10-23T10:06:32.167Z,27.43
2022-10-23T10:09:16.257Z,26.20
2022-10-23T10:11:52.602Z,31.40
2022-10-23T10:14:27.181Z,28.43
2022-10-23T10:16:54.241Z,31.67
2022-10-23T10:19:24.091Z,27.07
2022-10-23T10:22:12.585Z,23.07
2022-10-23T10:24:47.387Z,31.63
2022-10-23T10:27:33.134Z,29.47
2022-10-23T10:30:29.844Z,36.37
2022-10-23T10:33:05.748Z,34.33
2022-10-23T10:35:46.520Z,28.60
2022-10-23T10:38:16.693Z,28.53
2022-10-23T10:40:52.083Z,26.30
2022-10-23T10:43:32.473Z,28.57
2022-10-23T10:46:05.858Z,29.30
2022-10-23T10:48:41.598Z,28.40
2022-10-23T10:51:10.453Z,32.50
2022-10-23T10:53:40.941Z,30.90
2022-10-23T10:56:11.868Z,32.90
2022-10-23T10:58:44.759Z,32.17
2022-10-23T11:01:18.333Z,35.70
2022-10-23T11:03:54.629Z,31.30
2022-10-23T11:06:24.050Z,30.93
2022-10-23T11:08:57.951Z,31.07
2022-10-23T11:11:35.654Z,32.33
2022-10-23T11:14:02.907Z,31.43
2022-10-23T11:16:38.225Z,31.63
2022-10-23T11:19:07.519Z,35.60
2022-10-23T11:21:42.745Z,28.13
2022-10-23T11:24:28.334Z,34.33
2022-10-23T11:27:18.916Z,32.57
2022-10-23T11:30:00.005Z,28.87
2022-10-23T11:32:39.380Z,36.57
2022-10-23T11:35:09.317Z,28.97
2022-10-23T11:37:36.411Z,31.60
2022-10-23T11:40:18.491Z,24.03
2022-10-23T11:42:45.952Z,26.73
2022-10-23T11:45:30.048Z,29.20
2022-10-23T11:47:58.795Z,29.53
2022-10-23T11:50:27.747Z,33.03
2022-10-23T11:53:12.924Z,29.20
2022-10-23T11:55:42.203Z,26.63
2022-10-23T11:58:20.401Z,28.73
2022-10-23T12:00:52.744Z,32.57
2022-10-23T12:03:21.870Z,26.37
2022-10-23T12:05:56.911Z,33.73
2022-10-23T12:08:26.282Z,29.53
2022-10-23T12:10:55.253Z,38.07
2022-10-23T12:13:37.664Z,29.10
2022-10-23T12:16:05.794Z,30.53
2022-10-23T12:18:32.929Z,30.83
2022-10-23T12:21:04.560Z,27.67
2022-10-23T12:23:37.788Z,30.90
2022-10-23T12:26:27.101Z,25.13
2022-10-23T12:29:12.754Z,29.13
2022-10-23T12:31:48.241Z,23.67
2022-10-23T12:34:15.473Z,24.80
2022-10-23T12:36:42.527Z,25.37
2022-10-23T12:39:26.849Z,23.57
2022-10-23T12:41:54.194Z,26.80
2022-10-23T12:44:22.112Z,26.90
2022-10-23T12:46:50.682Z,27.60
2022-10-23T12:49:19.705Z,22.73
2022-10-23T12:51:54.656Z,24.50
2022-10-23T12:54:22.082Z,19.50
2022-10-23T12:56:49.339Z,20.03
2022-10-23T12:59:28.039Z,15.77
2022-10-23T13:01:55.787Z,21.63
2022-10-23T13:04:23.053Z,24.87
2022-10-23T13:06:50.690Z,22.13
2022-10-23T13:09:32.604Z,28.63
2022-10-23T13:12:01.464Z,23.73
2022-10-23T13:14:43.700Z,27.03
2022-10-23T13:17:12.561Z,24.27
2022-10-23T13:19:39.692Z,23.87
2022-10-23T13:22:18.276Z,21.93
2022-10-23T13:24:45.379Z,25.03
2022-10-23T13:27:33.603Z,25.60
2022-10-23T13:30:00.925Z,21.67
2022-10-23T13:32:30.502Z,22.47
2022-10-23T13:35:10.402Z,25.37
2022-10-23T13:40:25.763Z,19.57
2022-10-23T13:42:54.152Z,22.27
2022-10-23T13:45:22.811Z,20.50
2022-10-23T13:47:50.165Z,20.50
2022-10-23T13:50:17.478Z,25.53
2022-10-23T13:52:44.607Z,20.57
2022-10-23T13:55:23.086Z,18.20
2022-10-23T13:57:50.198Z,16.73
2022-10-23T14:00:17.863Z,21.97
2022-10-23T14:02:45.165Z,20.77
2022-10-23T14:05:12.617Z,20.43
2022-10-23T14:07:39.758Z,23.70
2022-10-23T14:10:07.078Z,19.57
2022-10-23T14:12:40.011Z,19.97
2022-10-23T14:15:07.579Z,18.97
2022-10-23T14:17:35.238Z,18.20
2022-10-23T14:20:04.133Z,20.17
2022-10-23T14:22:33.026Z,20.03
2022-10-23T14:25:00.151Z,25.93
2022-10-23T14:27:27.321Z,18.70
2022-10-23T14:29:54.461Z,17.50
2022-10-23T14:32:21.649Z,22.03
2022-10-23T14:34:53.301Z,17.50
2022-10-23T14:37:20.964Z,21.43
2022-10-23T14:39:50.161Z,18.43
2022-10-23T14:42:17.651Z,19.23
2022-10-23T14:44:45.077Z,22.63
2022-10-23T14:47:12.423Z,23.60
2022-10-23T14:49:40.344Z,17.17
2022-10-23T14:52:07.700Z,19.10
2022-10-23T14:54:36.370Z,17.47
2022-10-23T14:57:04.307Z,22.23
2022-10-23T14:59:31.505Z,17.17
2022-10-23T15:01:58.654Z,16.20
2022-10-23T15:04:26.005Z,17.20
2022-10-23T15:06:53.281Z,14.23
2022-10-23T15:09:20.460Z,18.57
2022-10-23T15:11:47.864Z,15.07
2022-10-23T15:14:15.144Z,13.03
2022-10-23T15:16:42.353Z,13.43
2022-10-23T15:19:17.204Z,10.57
2022-10-23T15:21:46.331Z,12.10
2022-10-23T15:24:13.463Z,12.80
2022-10-23T15:26:43.021Z,11.13
2022-10-23T15:29:11.247Z,14.63
2022-10-23T15:31:38.598Z,14.23
2022-10-23T15:34:06.344Z,13.13
2022-10-23T15:36:33.703Z,12.73
2022-10-23T15:39:00.865Z,14.13
2022-10-23T15:41:28.976Z,11.90
2022-10-23T15:43:56.127Z,15.27
2022-10-23T15:46:23.276Z,15.03
2022-10-23T15:48:50.433Z,14.73
2022-10-23T15:51:17.588Z,19.47
2022-10-23T15:53:44.727Z,18.17
2022-10-23T15:56:11.838Z,17.87
2022-10-23T15:58:39.077Z,15.13
2022-10-23T16:01:06.844Z,20.43
2022-10-23T16:03:38.064Z,22.40
2022-10-23T16:06:09.057Z,16.67
2022-10-23T16:08:36.249Z,24.77
2022-10-23T16:11:03.596Z,16.20
2022-10-23T16:13:30.722Z,22.13
2022-10-23T16:15:57.839Z,29.53
2022-10-23T16:18:24.978Z,19.67
2022-10-23T16:20:55.019Z,21.27
2022-10-23T16:23:22.367Z,19.03
2022-10-23T16:25:51.053Z,24.57
2022-10-23T16:28:18.233Z,25.83
2022-10-23T16:30:46.277Z,30.40
2022-10-23T16:33:13.962Z,20.80
2022-10-23T16:35:41.121Z,22.33
2022-10-23T16:38:08.211Z,24.00
2022-10-23T16:40:35.333Z,25.80
2022-10-23T16:43:02.460Z,37.33
2022-10-23T16:45:31.340Z,33.00
2022-10-23T16:48:00.360Z,33.60
2022-10-23T16:50:27.500Z,30.80
2022-10-23T16:52:55.811Z,33.20
2022-10-23T16:55:23.270Z,33.30
2022-10-23T16:57:50.376Z,32.27
2022-10-23T17:00:21.954Z,35.67
2022-10-23T17:02:49.160Z,40.53
2022-10-23T17:05:16.379Z,34.63
2022-10-23T17:07:43.797Z,36.70
2022-10-23T17:10:11.155Z,35.47
2022-10-23T17:12:38.309Z,33.60
2022-10-23T17:15:05.711Z,30.90
2022-10-23T17:17:32.853Z,30.07
2022-10-23T17:19:59.980Z,35.10
2022-10-23T17:22:27.762Z,24.97
2022-10-23T17:24:54.851Z,25.60
2022-10-23T17:27:21.966Z,23.10
2022-10-23T17:29:49.257Z,32.43
2022-10-23T17:32:16.471Z,22.30
2022-10-23T17:34:43.655Z,29.77
2022-10-23T17:37:13.222Z,27.27
2022-10-23T17:39:41.120Z,26.00
2022-10-23T17:42:08.357Z,25.03
2022-10-23T17:44:35.460Z,31.83
2022-10-23T17:47:02.608Z,30.30
2022-10-23T17:49:29.724Z,26.43
2022-10-23T17:51:57.820Z,29.30
2022-10-23T17:54:26.109Z,32.40
2022-10-23T17:56:53.244Z,30.53
2022-10-23T17:59:20.696Z,30.17
2022-10-23T18:01:48.677Z,31.63
2022-10-23T18:04:16.926Z,35.17
2022-10-23T18:06:45.716Z,37.63
2022-10-23T18:09:12.950Z,35.47
2022-10-23T18:11:45.615Z,30.23
2022-10-23T18:14:15.693Z,36.67
2022-10-23T18:16:43.021Z,38.90
2022-10-23T18:19:11.447Z,31.97
2022-10-23T18:21:40.102Z,36.43
2022-10-23T18:24:07.380Z,38.20
2022-10-23T18:26:35.146Z,36.17
2022-10-23T18:29:04.935Z,38.20
2022-10-23T18:31:32.067Z,33.83
2022-10-23T18:34:01.442Z,33.00
2022-10-23T18:36:31.022Z,33.60
2022-10-23T18:38:58.168Z,31.20
2022-10-23T18:41:25.734Z,30.67
2022-10-23T18:43:53.441Z,38.17
2022-10-23T18:46:21.137Z,30.80
2022-10-23T18:48:50.563Z,33.07
2022-10-23T18:51:22.031Z,28.40
2022-10-23T18:53:49.680Z,27.60
2022-10-23T18:56:21.997Z,29.80
2022-10-23T18:58:53.442Z,25.07
2022-10-23T19:01:21.072Z,32.30
2022-10-23T19:03:48.588Z,30.07
2022-10-23T19:06:16.167Z,27.57
2022-10-23T19:08:44.171Z,27.67
2022-10-23T19:11:11.900Z,19.40
2022-10-23T19:13:39.586Z,26.07
2022-10-23T19:16:13.418Z,25.70
2022-10-23T19:18:42.425Z,22.67
2022-10-23T19:21:09.764Z,23.10
2022-10-23T19:23:37.865Z,22.50
2022-10-23T19:26:08.724Z,22.40
2022-10-23T19:28:38.586Z,23.87
2022-10-23T19:31:07.604Z,25.37
2022-10-23T19:33:36.101Z,24.43
2022-10-23T19:36:05.469Z,26.53
2022-10-23T19:38:34.971Z,25.70
2022-10-23T19:41:03.969Z,24.07
2022-10-23T19:43:31.113Z,22.30
2022-10-23T19:46:03.926Z,23.37
2022-10-23T19:48:33.645Z,23.37
2022-10-23T19:51:00.752Z,22.67
2022-10-23T19:53:27.984Z,21.10
2022-10-23T19:56:05.757Z,21.87
2022-10-23T19:58:33.291Z,20.90
2022-10-23T20:01:07.098Z,21.53
2022-10-23T20:03:34.413Z,21.00
2022-10-23T20:06:01.517Z,20.17
2022-10-23T20:08:32.670Z,20.17
2022-10-23T20:11:02.242Z,20.43
2022-10-23T20:13:29.341Z,23.77
2022-10-23T20:15:56.488Z,20.40
2022-10-23T20:18:23.707Z,16.80
2022-10-23T20:20:50.835Z,18.60
2022-10-23T20:23:18.015Z,17.77
2022-10-23T20:25:45.222Z,20.30
2022-10-23T20:28:14.351Z,21.10
2022-10-23T20:30:44.020Z,21.80
2022-10-23T20:33:11.140Z,24.07
2022-10-23T20:35:39.297Z,25.90
2022-10-23T20:38:06.469Z,19.80
2022-10-23T20:40:33.807Z,18.87
2022-10-23T20:43:00.948Z,21.90
2022-10-23T20:45:28.095Z,19.00
2022-10-23T20:47:55.256Z,22.67
2022-10-23T20:50:23.826Z,24.33
2022-10-23T20:52:51.232Z,18.00
2022-10-23T20:55:18.538Z,20.50
2022-10-23T20:57:46.166Z,23.37
2022-10-23T21:00:13.622Z,19.87
2022-10-23T21:02:40.785Z,25.00
2022-10-23T21:05:08.238Z,22.07
2022-10-23T21:07:35.516Z,21.47
2022-10-23T21:10:04.045Z,25.13
2022-10-23T21:12:31.176Z,18.53
2022-10-23T21:14:58.608Z,26.53
2022-10-23T21:17:25.757Z,19.63
2022-10-23T21:19:52.991Z,18.47
2022-10-23T21:22:20.083Z,32.33
2022-10-23T21:24:47.222Z,18.50
2022-10-23T21:27:15.168Z,20.07
2022-10-23T21:29:42.378Z,22.90
2022-10-23T21:32:09.493Z,29.80
2022-10-23T21:34:36.623Z,49.93
2022-10-23T21:37:12.938Z,24.57
2022-10-23T21:39:40.961Z,28.70
2022-10-23T21:42:08.115Z,45.70
2022-10-23T21:44:35.328Z,43.83
2022-10-23T21:47:02.418Z,45.90
2022-10-23T21:49:29.746Z,93.63
2022-10-23T21:51:56.836Z,114.43
2022-10-23T21:54:23.986Z,39.17
2022-10-23T21:56:53.471Z,26.50
2022-10-23T21:59:21.921Z,35.53
2022-10-23T22:01:49.624Z,63.77
2022-10-23T22:04:17.697Z,43.57
2022-10-23T22:06:45.076Z,56.57
2022-10-23T22:09:13.100Z,44.23
2022-10-23T22:11:40.336Z,33.17
2022-10-23T22:14:07.469Z,44.07
2022-10-23T22:16:34.564Z,49.57
2022-10-23T22:19:01.698Z,51.27
2022-10-23T22:21:29.736Z,68.03
2022-10-23T22:23:58.022Z,72.50
2022-10-23T22:26:29.394Z,89.93
2022-10-23T22:28:58.271Z,62.63
2022-10-23T22:31:26.785Z,49.07
2022-10-23T22:33:54.681Z,30.37
2022-10-23T22:36:21.818Z,41.67
2022-10-23T22:38:49.079Z,72.13
2022-10-23T22:41:16.544Z,59.50
2022-10-23T22:43:43.741Z,52.37
2022-10-23T22:46:15.837Z,55.50
2022-10-23T22:48:43.327Z,40.47
2022-10-23T22:51:12.277Z,34.17
2022-10-23T22:53:39.406Z,21.07
2022-10-23T22:56:07.588Z,16.17
2022-10-23T22:58:35.142Z,18.73
2022-10-23T23:01:04.391Z,19.63
2022-10-23T23:03:31.616Z,19.10
2022-10-23T23:05:58.786Z,15.70
2022-10-23T23:08:26.008Z,14.80
2022-10-23T23:10:54.075Z,18.50
2022-10-23T23:13:21.191Z,15.50
2022-10-23T23:15:48.356Z,16.50
2022-10-23T23:18:15.591Z,16.07
2022-10-23T23:20:42.712Z,14.47
2022-10-23T23:23:11.729Z,18.47
2022-10-23T23:25:57.132Z,17.07
2022-10-23T23:28:24.612Z,16.40
2022-10-23T23:31:02.598Z,14.90
2022-10-23T23:33:29.715Z,13.17
2022-10-23T23:35:56.840Z,12.07
2022-10-23T23:38:23.955Z,15.53
2022-10-23T23:40:51.771Z,16.07
2022-10-23T23:43:19.240Z,15.63
2022-10-23T23:45:46.648Z,16.30
2022-10-23T23:48:13.746Z,13.70
2022-10-23T23:50:42.093Z,14.57
2022-10-23T23:53:09.205Z,13.63
2022-10-23T23:55:36.862Z,15.97
2022-10-23T23:58:04.274Z,13.87
